Terminal Aerodrome Forecast
Issued by NWS

Home | Current Version | Previous Version | Text Only | Print | Product List | Glossary On
Versions: 1 2 3 4 5 6 7 8 9 10 11 12 13 14 15 16 17 18
000
FTUS44 KLIX 241142
TAFMCB
TAF
KMCB 241142Z 2412/2512 14004KT 2SM BR OVC004
     FM241300 11005KT 4SM BR BKN010
     FM241400 12007KT P6SM BKN025
     FM241700 15014G21KT P6SM VCTS BKN035CB=

USA.gov is the U.S. government's official web portal to all federal, state and local government web resources and services.